sensor_id;sensor_type;location;lat;lon;timestamp;P1;durP1;ratioP1;P2;durP2;ratioP2
8466;SDS011;4270;48.148;11.648;2023-05-15T00:01:46;7.60;;;5.90;;
8466;SDS011;4270;48.148;11.648;2023-05-15T00:04:12;6.87;;;6.17;;
8466;SDS011;4270;48.148;11.648;2023-05-15T00:06:37;6.73;;;5.63;;
8466;SDS011;4270;48.148;11.648;2023-05-15T00:09:02;6.47;;;5.67;;
8466;SDS011;4270;48.148;11.648;2023-05-15T00:11:28;7.43;;;4.50;;
8466;SDS011;4270;48.148;11.648;2023-05-15T00:13:53;6.80;;;5.40;;
8466;SDS011;4270;48.148;11.648;2023-05-15T00:16:18;11.80;;;5.70;;
8466;SDS011;4270;48.148;11.648;2023-05-15T00:18:43;6.33;;;5.23;;
8466;SDS011;4270;48.148;11.648;2023-05-15T00:21:09;6.00;;;5.10;;
8466;SDS011;4270;48.148;11.648;2023-05-15T00:23:34;6.67;;;5.60;;
8466;SDS011;4270;48.148;11.648;2023-05-15T00:25:59;6.40;;;5.20;;
8466;SDS011;4270;48.148;11.648;2023-05-15T00:28:24;5.20;;;4.60;;
8466;SDS011;4270;48.148;11.648;2023-05-15T00:30:49;7.13;;;4.53;;
8466;SDS011;4270;48.148;11.648;2023-05-15T00:33:15;5.93;;;4.70;;
8466;SDS011;4270;48.148;11.648;2023-05-15T00:35:41;6.00;;;4.43;;
8466;SDS011;4270;48.148;11.648;2023-05-15T00:38:06;7.37;;;5.20;;
8466;SDS011;4270;48.148;11.648;2023-05-15T00:40:31;10.37;;;5.70;;
8466;SDS011;4270;48.148;11.648;2023-05-15T00:42:56;6.37;;;5.10;;
8466;SDS011;4270;48.148;11.648;2023-05-15T00:45:22;6.90;;;4.90;;
8466;SDS011;4270;48.148;11.648;2023-05-15T00:47:48;6.30;;;5.20;;
8466;SDS011;4270;48.148;11.648;2023-05-15T00:50:13;6.90;;;5.70;;
8466;SDS011;4270;48.148;11.648;2023-05-15T00:52:39;7.30;;;5.53;;
8466;SDS011;4270;48.148;11.648;2023-05-15T00:55:04;6.40;;;5.30;;
8466;SDS011;4270;48.148;11.648;2023-05-15T00:57:30;7.10;;;5.23;;
8466;SDS011;4270;48.148;11.648;2023-05-15T00:59:56;6.20;;;5.10;;
8466;SDS011;4270;48.148;11.648;2023-05-15T01:02:21;10.80;;;5.83;;
8466;SDS011;4270;48.148;11.648;2023-05-15T01:04:47;9.63;;;5.43;;
8466;SDS011;4270;48.148;11.648;2023-05-15T01:07:12;9.13;;;5.67;;
8466;SDS011;4270;48.148;11.648;2023-05-15T01:09:37;7.10;;;6.10;;
8466;SDS011;4270;48.148;11.648;2023-05-15T01:12:03;7.73;;;6.03;;
8466;SDS011;4270;48.148;11.648;2023-05-15T01:14:30;8.90;;;7.17;;
8466;SDS011;4270;48.148;11.648;2023-05-15T01:16:55;7.60;;;6.27;;
8466;SDS011;4270;48.148;11.648;2023-05-15T01:19:20;7.33;;;6.07;;
8466;SDS011;4270;48.148;11.648;2023-05-15T01:21:51;8.20;;;6.03;;
8466;SDS011;4270;48.148;11.648;2023-05-15T01:24:30;7.63;;;6.57;;
8466;SDS011;4270;48.148;11.648;2023-05-15T01:27:14;7.30;;;6.37;;
8466;SDS011;4270;48.148;11.648;2023-05-15T01:29:48;8.97;;;5.90;;
8466;SDS011;4270;48.148;11.648;2023-05-15T01:32:21;10.07;;;6.00;;
8466;SDS011;4270;48.148;11.648;2023-05-15T01:34:51;7.17;;;5.30;;
8466;SDS011;4270;48.148;11.648;2023-05-15T01:37:18;7.70;;;5.80;;
8466;SDS011;4270;48.148;11.648;2023-05-15T01:39:46;8.33;;;6.50;;
8466;SDS011;4270;48.148;11.648;2023-05-15T01:42:14;8.20;;;6.07;;
8466;SDS011;4270;48.148;11.648;2023-05-15T01:44:42;8.30;;;6.30;;
8466;SDS011;4270;48.148;11.648;2023-05-15T01:47:16;8.93;;;6.63;;
8466;SDS011;4270;48.148;11.648;2023-05-15T01:49:43;8.60;;;6.30;;
8466;SDS011;4270;48.148;11.648;2023-05-15T01:52:13;7.17;;;6.03;;
8466;SDS011;4270;48.148;11.648;2023-05-15T01:54:40;9.30;;;6.10;;
8466;SDS011;4270;48.148;11.648;2023-05-15T01:57:06;8.57;;;6.10;;
8466;SDS011;4270;48.148;11.648;2023-05-15T01:59:32;9.30;;;6.10;;
8466;SDS011;4270;48.148;11.648;2023-05-15T02:01:58;8.83;;;6.70;;
8466;SDS011;4270;48.148;11.648;2023-05-15T02:04:23;7.80;;;5.97;;
8466;SDS011;4270;48.148;11.648;2023-05-15T02:06:49;10.60;;;7.47;;
8466;SDS011;4270;48.148;11.648;2023-05-15T02:09:15;8.07;;;6.50;;
8466;SDS011;4270;48.148;11.648;2023-05-15T02:11:40;9.13;;;7.00;;
8466;SDS011;4270;48.148;11.648;2023-05-15T02:14:06;13.27;;;7.43;;
8466;SDS011;4270;48.148;11.648;2023-05-15T02:16:33;10.73;;;7.53;;
8466;SDS011;4270;48.148;11.648;2023-05-15T02:18:58;12.03;;;8.90;;
8466;SDS011;4270;48.148;11.648;2023-05-15T02:21:23;11.90;;;8.23;;
8466;SDS011;4270;48.148;11.648;2023-05-15T02:23:48;13.50;;;8.00;;
8466;SDS011;4270;48.148;11.648;2023-05-15T02:31:22;19.23;;;8.27;;
8466;SDS011;4270;48.148;11.648;2023-05-15T02:34:08;12.43;;;8.23;;
8466;SDS011;4270;48.148;11.648;2023-05-15T02:36:35;12.57;;;8.10;;
8466;SDS011;4270;48.148;11.648;2023-05-15T02:39:04;15.27;;;9.30;;
8466;SDS011;4270;48.148;11.648;2023-05-15T02:41:29;12.67;;;8.77;;
8466;SDS011;4270;48.148;11.648;2023-05-15T02:43:55;13.27;;;9.23;;
8466;SDS011;4270;48.148;11.648;2023-05-15T02:46:20;10.80;;;8.00;;
8466;SDS011;4270;48.148;11.648;2023-05-15T02:48:46;12.30;;;8.40;;
8466;SDS011;4270;48.148;11.648;2023-05-15T02:51:12;25.83;;;9.73;;
8466;SDS011;4270;48.148;11.648;2023-05-15T02:53:38;13.87;;;8.63;;
8466;SDS011;4270;48.148;11.648;2023-05-15T02:56:03;14.10;;;9.53;;
8466;SDS011;4270;48.148;11.648;2023-05-15T02:58:28;13.00;;;10.60;;
8466;SDS011;4270;48.148;11.648;2023-05-15T03:00:54;15.43;;;10.00;;
8466;SDS011;4270;48.148;11.648;2023-05-15T03:03:19;15.17;;;10.40;;
8466;SDS011;4270;48.148;11.648;2023-05-15T03:05:44;15.87;;;10.77;;
8466;SDS011;4270;48.148;11.648;2023-05-15T03:08:09;13.90;;;9.40;;
8466;SDS011;4270;48.148;11.648;2023-05-15T03:10:34;11.27;;;9.07;;
8466;SDS011;4270;48.148;11.648;2023-05-15T03:12:59;15.30;;;9.63;;
8466;SDS011;4270;48.148;11.648;2023-05-15T03:15:25;13.73;;;9.27;;
8466;SDS011;4270;48.148;11.648;2023-05-15T03:17:50;13.90;;;9.63;;
8466;SDS011;4270;48.148;11.648;2023-05-15T03:20:15;12.17;;;8.87;;
8466;SDS011;4270;48.148;11.648;2023-05-15T03:22:40;13.27;;;9.00;;
8466;SDS011;4270;48.148;11.648;2023-05-15T03:25:08;13.80;;;9.53;;
8466;SDS011;4270;48.148;11.648;2023-05-15T03:27:33;12.40;;;8.50;;
8466;SDS011;4270;48.148;11.648;2023-05-15T03:29:58;12.83;;;9.23;;
8466;SDS011;4270;48.148;11.648;2023-05-15T03:32:23;11.77;;;8.03;;
8466;SDS011;4270;48.148;11.648;2023-05-15T03:34:48;13.33;;;9.50;;
8466;SDS011;4270;48.148;11.648;2023-05-15T03:37:13;12.20;;;8.90;;
8466;SDS011;4270;48.148;11.648;2023-05-15T03:39:39;11.20;;;8.17;;
8466;SDS011;4270;48.148;11.648;2023-05-15T03:42:04;12.97;;;9.17;;
8466;SDS011;4270;48.148;11.648;2023-05-15T03:44:29;14.40;;;9.03;;
8466;SDS011;4270;48.148;11.648;2023-05-15T03:46:54;10.47;;;7.60;;
8466;SDS011;4270;48.148;11.648;2023-05-15T03:49:20;11.10;;;7.20;;
8466;SDS011;4270;48.148;11.648;2023-05-15T03:51:45;10.43;;;7.03;;
8466;SDS011;4270;48.148;11.648;2023-05-15T03:54:10;9.33;;;7.10;;
8466;SDS011;4270;48.148;11.648;2023-05-15T03:56:35;10.70;;;7.50;;
8466;SDS011;4270;48.148;11.648;2023-05-15T03:59:00;12.17;;;8.23;;
8466;SDS011;4270;48.148;11.648;2023-05-15T04:01:26;16.20;;;8.63;;
8466;SDS011;4270;48.148;11.648;2023-05-15T04:03:51;12.43;;;7.70;;
8466;SDS011;4270;48.148;11.648;2023-05-15T04:06:16;9.80;;;7.77;;
8466;SDS011;4270;48.148;11.648;2023-05-15T04:08:41;10.70;;;7.77;;
8466;SDS011;4270;48.148;11.648;2023-05-15T04:11:06;10.73;;;8.00;;
8466;SDS011;4270;48.148;11.648;2023-05-15T04:13:31;9.77;;;7.40;;
8466;SDS011;4270;48.148;11.648;2023-05-15T04:15:57;10.60;;;7.73;;
8466;SDS011;4270;48.148;11.648;2023-05-15T04:18:23;11.13;;;8.00;;
8466;SDS011;4270;48.148;11.648;2023-05-15T04:20:48;12.53;;;8.23;;
8466;SDS011;4270;48.148;11.648;2023-05-15T04:23:14;12.77;;;8.77;;
8466;SDS011;4270;48.148;11.648;2023-05-15T04:25:39;10.03;;;7.80;;
8466;SDS011;4270;48.148;11.648;2023-05-15T04:28:09;12.90;;;9.83;;
8466;SDS011;4270;48.148;11.648;2023-05-15T04:30:34;13.73;;;9.50;;
8466;SDS011;4270;48.148;11.648;2023-05-15T04:32:59;11.23;;;9.00;;
8466;SDS011;4270;48.148;11.648;2023-05-15T04:35:25;10.10;;;8.27;;
8466;SDS011;4270;48.148;11.648;2023-05-15T04:37:50;24.53;;;9.63;;
8466;SDS011;4270;48.148;11.648;2023-05-15T04:40:15;14.27;;;10.40;;
8466;SDS011;4270;48.148;11.648;2023-05-15T04:42:40;14.30;;;9.60;;
8466;SDS011;4270;48.148;11.648;2023-05-15T04:45:06;14.20;;;9.47;;
8466;SDS011;4270;48.148;11.648;2023-05-15T04:47:31;13.90;;;9.87;;
8466;SDS011;4270;48.148;11.648;2023-05-15T04:49:56;13.43;;;9.20;;
8466;SDS011;4270;48.148;11.648;2023-05-15T04:52:21;12.87;;;9.17;;
8466;SDS011;4270;48.148;11.648;2023-05-15T04:54:47;16.43;;;10.43;;
8466;SDS011;4270;48.148;11.648;2023-05-15T04:57:14;11.17;;;8.77;;
8466;SDS011;4270;48.148;11.648;2023-05-15T04:59:40;13.73;;;9.70;;
8466;SDS011;4270;48.148;11.648;2023-05-15T05:02:05;12.97;;;9.83;;
8466;SDS011;4270;48.148;11.648;2023-05-15T05:04:30;15.43;;;10.43;;
8466;SDS011;4270;48.148;11.648;2023-05-15T05:06:55;12.67;;;10.13;;
8466;SDS011;4270;48.148;11.648;2023-05-15T05:09:20;13.37;;;9.63;;
8466;SDS011;4270;48.148;11.648;2023-05-15T05:11:46;14.83;;;9.33;;
8466;SDS011;4270;48.148;11.648;2023-05-15T05:14:12;14.50;;;9.67;;
8466;SDS011;4270;48.148;11.648;2023-05-15T05:16:37;12.97;;;9.07;;
8466;SDS011;4270;48.148;11.648;2023-05-15T05:19:02;15.30;;;10.40;;
8466;SDS011;4270;48.148;11.648;2023-05-15T05:21:28;14.00;;;10.03;;
8466;SDS011;4270;48.148;11.648;2023-05-15T05:23:53;17.23;;;10.83;;
8466;SDS011;4270;48.148;11.648;2023-05-15T05:26:19;14.00;;;11.20;;
8466;SDS011;4270;48.148;11.648;2023-05-15T05:28:44;16.90;;;11.27;;
8466;SDS011;4270;48.148;11.648;2023-05-15T05:31:10;13.20;;;9.97;;
8466;SDS011;4270;48.148;11.648;2023-05-15T05:33:35;15.57;;;11.27;;
8466;SDS011;4270;48.148;11.648;2023-05-15T05:36:00;19.47;;;10.67;;
8466;SDS011;4270;48.148;11.648;2023-05-15T05:38:25;13.33;;;9.90;;
8466;SDS011;4270;48.148;11.648;2023-05-15T05:40:51;13.10;;;10.20;;
8466;SDS011;4270;48.148;11.648;2023-05-15T05:43:16;15.20;;;11.30;;
8466;SDS011;4270;48.148;11.648;2023-05-15T05:45:42;17.10;;;11.53;;
8466;SDS011;4270;48.148;11.648;2023-05-15T05:48:07;16.50;;;11.03;;
8466;SDS011;4270;48.148;11.648;2023-05-15T05:50:32;15.80;;;11.40;;
8466;SDS011;4270;48.148;11.648;2023-05-15T05:52:57;17.07;;;11.07;;
8466;SDS011;4270;48.148;11.648;2023-05-15T05:55:22;14.53;;;10.37;;
8466;SDS011;4270;48.148;11.648;2023-05-15T05:57:47;14.03;;;10.37;;
8466;SDS011;4270;48.148;11.648;2023-05-15T06:00:13;16.13;;;11.23;;
8466;SDS011;4270;48.148;11.648;2023-05-15T06:02:38;13.07;;;10.10;;
8466;SDS011;4270;48.148;11.648;2023-05-15T06:05:04;12.90;;;9.33;;
8466;SDS011;4270;48.148;11.648;2023-05-15T06:07:30;13.60;;;9.97;;
8466;SDS011;4270;48.148;11.648;2023-05-15T06:09:55;14.60;;;10.53;;
8466;SDS011;4270;48.148;11.648;2023-05-15T06:12:21;14.63;;;10.50;;
8466;SDS011;4270;48.148;11.648;2023-05-15T06:14:46;12.80;;;10.60;;
8466;SDS011;4270;48.148;11.648;2023-05-15T06:17:11;14.63;;;9.73;;
8466;SDS011;4270;48.148;11.648;2023-05-15T06:19:36;13.97;;;9.53;;
8466;SDS011;4270;48.148;11.648;2023-05-15T06:22:01;10.87;;;8.67;;
8466;SDS011;4270;48.148;11.648;2023-05-15T06:24:27;12.90;;;10.50;;
8466;SDS011;4270;48.148;11.648;2023-05-15T06:26:52;11.57;;;9.43;;
8466;SDS011;4270;48.148;11.648;2023-05-15T06:29:17;14.97;;;10.33;;
8466;SDS011;4270;48.148;11.648;2023-05-15T06:31:43;10.57;;;7.90;;
8466;SDS011;4270;48.148;11.648;2023-05-15T06:34:08;11.67;;;8.80;;
8466;SDS011;4270;48.148;11.648;2023-05-15T06:36:33;12.10;;;8.77;;
8466;SDS011;4270;48.148;11.648;2023-05-15T06:38:59;13.97;;;10.40;;
8466;SDS011;4270;48.148;11.648;2023-05-15T06:41:24;11.53;;;8.97;;
8466;SDS011;4270;48.148;11.648;2023-05-15T06:43:49;12.87;;;8.87;;
8466;SDS011;4270;48.148;11.648;2023-05-15T06:46:14;14.17;;;9.40;;
8466;SDS011;4270;48.148;11.648;2023-05-15T06:48:42;10.60;;;8.73;;
8466;SDS011;4270;48.148;11.648;2023-05-15T06:51:08;12.03;;;8.60;;
8466;SDS011;4270;48.148;11.648;2023-05-15T06:53:33;11.10;;;8.20;;
8466;SDS011;4270;48.148;11.648;2023-05-15T06:55:58;10.93;;;8.77;;
8466;SDS011;4270;48.148;11.648;2023-05-15T06:58:23;10.70;;;9.50;;
8466;SDS011;4270;48.148;11.648;2023-05-15T07:00:49;12.23;;;7.90;;
8466;SDS011;4270;48.148;11.648;2023-05-15T07:03:14;20.20;;;8.63;;
8466;SDS011;4270;48.148;11.648;2023-05-15T07:05:40;10.03;;;8.47;;
8466;SDS011;4270;48.148;11.648;2023-05-15T07:08:06;10.27;;;8.67;;
8466;SDS011;4270;48.148;11.648;2023-05-15T07:10:31;9.47;;;7.57;;
8466;SDS011;4270;48.148;11.648;2023-05-15T07:12:56;8.73;;;7.87;;
8466;SDS011;4270;48.148;11.648;2023-05-15T07:15:21;12.10;;;7.13;;
8466;SDS011;4270;48.148;11.648;2023-05-15T07:17:46;9.17;;;7.33;;
8466;SDS011;4270;48.148;11.648;2023-05-15T07:20:12;9.80;;;8.50;;
8466;SDS011;4270;48.148;11.648;2023-05-15T07:22:37;8.53;;;7.23;;
8466;SDS011;4270;48.148;11.648;2023-05-15T07:25:02;8.47;;;7.30;;
8466;SDS011;4270;48.148;11.648;2023-05-15T07:27:28;7.47;;;6.50;;
8466;SDS011;4270;48.148;11.648;2023-05-15T07:29:53;10.43;;;7.57;;
8466;SDS011;4270;48.148;11.648;2023-05-15T07:32:18;11.27;;;6.67;;
8466;SDS011;4270;48.148;11.648;2023-05-15T07:34:43;9.50;;;6.87;;
8466;SDS011;4270;48.148;11.648;2023-05-15T07:37:09;8.27;;;6.83;;
8466;SDS011;4270;48.148;11.648;2023-05-15T07:39:34;6.43;;;5.73;;
8466;SDS011;4270;48.148;11.648;2023-05-15T07:41:59;6.90;;;6.20;;
8466;SDS011;4270;48.148;11.648;2023-05-15T07:44:24;5.87;;;5.20;;
8466;SDS011;4270;48.148;11.648;2023-05-15T07:46:49;7.00;;;5.73;;
8466;SDS011;4270;48.148;11.648;2023-05-15T07:49:15;6.17;;;5.60;;
8466;SDS011;4270;48.148;11.648;2023-05-15T07:51:40;6.17;;;5.10;;
8466;SDS011;4270;48.148;11.648;2023-05-15T07:54:06;5.07;;;4.57;;
8466;SDS011;4270;48.148;11.648;2023-05-15T07:56:31;5.17;;;4.60;;
8466;SDS011;4270;48.148;11.648;2023-05-15T07:58:57;4.90;;;4.50;;
8466;SDS011;4270;48.148;11.648;2023-05-15T08:01:22;4.80;;;4.30;;
8466;SDS011;4270;48.148;11.648;2023-05-15T08:03:47;4.00;;;3.53;;
8466;SDS011;4270;48.148;11.648;2023-05-15T08:06:12;4.30;;;3.83;;
8466;SDS011;4270;48.148;11.648;2023-05-15T08:08:37;4.40;;;4.00;;
8466;SDS011;4270;48.148;11.648;2023-05-15T08:11:02;4.17;;;3.87;;
8466;SDS011;4270;48.148;11.648;2023-05-15T08:13:28;4.40;;;4.00;;
8466;SDS011;4270;48.148;11.648;2023-05-15T08:15:53;6.43;;;5.10;;
8466;SDS011;4270;48.148;11.648;2023-05-15T08:18:18;4.80;;;4.40;;
8466;SDS011;4270;48.148;11.648;2023-05-15T08:20:43;4.37;;;3.97;;
8466;SDS011;4270;48.148;11.648;2023-05-15T08:23:08;5.90;;;4.30;;
8466;SDS011;4270;48.148;11.648;2023-05-15T08:25:34;4.20;;;3.50;;
8466;SDS011;4270;48.148;11.648;2023-05-15T08:28:00;4.60;;;3.97;;
8466;SDS011;4270;48.148;11.648;2023-05-15T08:30:25;4.70;;;3.50;;
8466;SDS011;4270;48.148;11.648;2023-05-15T08:32:50;3.50;;;3.20;;
8466;SDS011;4270;48.148;11.648;2023-05-15T08:35:15;3.57;;;3.27;;
8466;SDS011;4270;48.148;11.648;2023-05-15T08:37:40;4.00;;;3.70;;
8466;SDS011;4270;48.148;11.648;2023-05-15T08:40:06;4.67;;;3.87;;
8466;SDS011;4270;48.148;11.648;2023-05-15T08:44:59;3.83;;;3.53;;
8466;SDS011;4270;48.148;11.648;2023-05-15T08:47:26;4.17;;;3.87;;
8466;SDS011;4270;48.148;11.648;2023-05-15T08:52:20;3.97;;;3.67;;
8466;SDS011;4270;48.148;11.648;2023-05-15T08:54:45;4.20;;;3.90;;
8466;SDS011;4270;48.148;11.648;2023-05-15T08:57:12;4.27;;;3.97;;
8466;SDS011;4270;48.148;11.648;2023-05-15T08:59:37;4.30;;;4.00;;
8466;SDS011;4270;48.148;11.648;2023-05-15T09:02:02;4.50;;;4.10;;
8466;SDS011;4270;48.148;11.648;2023-05-15T09:04:27;3.93;;;3.63;;
8466;SDS011;4270;48.148;11.648;2023-05-15T09:06:53;5.20;;;4.40;;
8466;SDS011;4270;48.148;11.648;2023-05-15T09:09:18;4.80;;;4.40;;
8466;SDS011;4270;48.148;11.648;2023-05-15T09:11:45;4.33;;;3.93;;
8466;SDS011;4270;48.148;11.648;2023-05-15T09:14:10;4.57;;;4.17;;
8466;SDS011;4270;48.148;11.648;2023-05-15T09:16:36;4.87;;;4.37;;
8466;SDS011;4270;48.148;11.648;2023-05-15T09:19:01;5.47;;;4.57;;
8466;SDS011;4270;48.148;11.648;2023-05-15T09:21:27;5.00;;;4.20;;
8466;SDS011;4270;48.148;11.648;2023-05-15T09:23:54;7.03;;;4.60;;
8466;SDS011;4270;48.148;11.648;2023-05-15T09:26:19;5.03;;;4.63;;
8466;SDS011;4270;48.148;11.648;2023-05-15T09:28:45;4.60;;;4.27;;
8466;SDS011;4270;48.148;11.648;2023-05-15T09:31:11;5.43;;;4.90;;
8466;SDS011;4270;48.148;11.648;2023-05-15T09:33:37;5.23;;;4.73;;
8466;SDS011;4270;48.148;11.648;2023-05-15T09:36:03;5.60;;;5.10;;
8466;SDS011;4270;48.148;11.648;2023-05-15T09:38:31;4.83;;;4.40;;
8466;SDS011;4270;48.148;11.648;2023-05-15T09:41:14;4.80;;;4.40;;
8466;SDS011;4270;48.148;11.648;2023-05-15T09:43:45;4.70;;;4.20;;
8466;SDS011;4270;48.148;11.648;2023-05-15T09:46:10;4.27;;;3.87;;
8466;SDS011;4270;48.148;11.648;2023-05-15T09:48:38;5.33;;;4.83;;
8466;SDS011;4270;48.148;11.648;2023-05-15T09:51:04;4.70;;;4.30;;
8466;SDS011;4270;48.148;11.648;2023-05-15T09:53:31;5.03;;;4.43;;
8466;SDS011;4270;48.148;11.648;2023-05-15T09:55:56;4.50;;;4.10;;
8466;SDS011;4270;48.148;11.648;2023-05-15T09:58:22;4.60;;;4.20;;
8466;SDS011;4270;48.148;11.648;2023-05-15T10:00:47;4.93;;;4.43;;
8466;SDS011;4270;48.148;11.648;2023-05-15T10:03:12;4.40;;;4.10;;
8466;SDS011;4270;48.148;11.648;2023-05-15T10:05:38;6.10;;;5.03;;
8466;SDS011;4270;48.148;11.648;2023-05-15T10:08:03;5.17;;;4.70;;
8466;SDS011;4270;48.148;11.648;2023-05-15T10:10:29;5.00;;;4.60;;
8466;SDS011;4270;48.148;11.648;2023-05-15T10:12:55;4.87;;;4.10;;
8466;SDS011;4270;48.148;11.648;2023-05-15T10:15:22;5.10;;;4.60;;
8466;SDS011;4270;48.148;11.648;2023-05-15T10:17:48;4.33;;;3.80;;
8466;SDS011;4270;48.148;11.648;2023-05-15T10:20:15;4.80;;;4.40;;
8466;SDS011;4270;48.148;11.648;2023-05-15T10:22:40;6.10;;;5.50;;
8466;SDS011;4270;48.148;11.648;2023-05-15T10:25:25;5.57;;;5.07;;
8466;SDS011;4270;48.148;11.648;2023-05-15T10:27:50;5.10;;;4.63;;
8466;SDS011;4270;48.148;11.648;2023-05-15T10:30:16;4.70;;;4.30;;
8466;SDS011;4270;48.148;11.648;2023-05-15T10:32:43;4.40;;;4.00;;
8466;SDS011;4270;48.148;11.648;2023-05-15T10:35:08;5.00;;;4.40;;
8466;SDS011;4270;48.148;11.648;2023-05-15T10:37:34;6.00;;;4.20;;
8466;SDS011;4270;48.148;11.648;2023-05-15T10:40:00;4.13;;;3.80;;
8466;SDS011;4270;48.148;11.648;2023-05-15T10:42:25;7.90;;;4.30;;
8466;SDS011;4270;48.148;11.648;2023-05-15T10:44:52;5.00;;;4.53;;
8466;SDS011;4270;48.148;11.648;2023-05-15T10:47:17;5.00;;;4.33;;
8466;SDS011;4270;48.148;11.648;2023-05-15T10:49:42;5.20;;;4.73;;
8466;SDS011;4270;48.148;11.648;2023-05-15T10:52:07;6.20;;;5.30;;
8466;SDS011;4270;48.148;11.648;2023-05-15T10:54:33;5.00;;;4.57;;
8466;SDS011;4270;48.148;11.648;2023-05-15T10:56:59;4.73;;;4.10;;
8466;SDS011;4270;48.148;11.648;2023-05-15T10:59:30;5.10;;;4.40;;
8466;SDS011;4270;48.148;11.648;2023-05-15T11:01:56;5.00;;;4.50;;
8466;SDS011;4270;48.148;11.648;2023-05-15T11:04:21;5.50;;;4.77;;
8466;SDS011;4270;48.148;11.648;2023-05-15T11:06:47;5.40;;;4.90;;
8466;SDS011;4270;48.148;11.648;2023-05-15T11:09:32;6.33;;;4.73;;
8466;SDS011;4270;48.148;11.648;2023-05-15T11:11:57;5.27;;;4.77;;
8466;SDS011;4270;48.148;11.648;2023-05-15T11:14:25;5.60;;;5.10;;
8466;SDS011;4270;48.148;11.648;2023-05-15T11:21:59;5.47;;;4.90;;
8466;SDS011;4270;48.148;11.648;2023-05-15T11:24:31;5.33;;;4.87;;
8466;SDS011;4270;48.148;11.648;2023-05-15T11:26:58;6.40;;;4.70;;
8466;SDS011;4270;48.148;11.648;2023-05-15T11:29:23;4.37;;;3.97;;
8466;SDS011;4270;48.148;11.648;2023-05-15T11:31:48;6.00;;;4.67;;
8466;SDS011;4270;48.148;11.648;2023-05-15T11:34:14;5.03;;;4.50;;
8466;SDS011;4270;48.148;11.648;2023-05-15T11:36:39;5.37;;;4.73;;
8466;SDS011;4270;48.148;11.648;2023-05-15T11:39:10;6.20;;;5.20;;
8466;SDS011;4270;48.148;11.648;2023-05-15T11:41:35;6.27;;;4.83;;
8466;SDS011;4270;48.148;11.648;2023-05-15T11:44:01;4.60;;;4.20;;
8466;SDS011;4270;48.148;11.648;2023-05-15T11:46:27;4.70;;;4.30;;
8466;SDS011;4270;48.148;11.648;2023-05-15T11:48:52;5.00;;;4.40;;
8466;SDS011;4270;48.148;11.648;2023-05-15T11:51:19;6.00;;;5.40;;
8466;SDS011;4270;48.148;11.648;2023-05-15T11:53:45;5.53;;;5.03;;
8466;SDS011;4270;48.148;11.648;2023-05-15T11:56:17;5.40;;;4.90;;
8466;SDS011;4270;48.148;11.648;2023-05-15T11:58:43;4.57;;;4.18;;
8466;SDS011;4270;48.148;11.648;2023-05-15T12:01:09;18.80;;;8.40;;
8466;SDS011;4270;48.148;11.648;2023-05-15T12:03:34;38.20;;;15.80;;
8466;SDS011;4270;48.148;11.648;2023-05-15T12:06:00;10.50;;;6.90;;
8466;SDS011;4270;48.148;11.648;2023-05-15T12:08:29;7.60;;;5.83;;
8466;SDS011;4270;48.148;11.648;2023-05-15T12:10:57;7.43;;;6.60;;
8466;SDS011;4270;48.148;11.648;2023-05-15T12:13:23;15.00;;;6.60;;
8466;SDS011;4270;48.148;11.648;2023-05-15T12:15:48;7.43;;;6.47;;
8466;SDS011;4270;48.148;11.648;2023-05-15T12:18:13;6.90;;;6.17;;
8466;SDS011;4270;48.148;11.648;2023-05-15T12:20:39;7.07;;;5.53;;
8466;SDS011;4270;48.148;11.648;2023-05-15T12:23:09;8.23;;;6.00;;
8466;SDS011;4270;48.148;11.648;2023-05-15T12:25:34;8.83;;;6.83;;
8466;SDS011;4270;48.148;11.648;2023-05-15T12:28:00;6.67;;;6.00;;
8466;SDS011;4270;48.148;11.648;2023-05-15T12:30:26;7.63;;;6.50;;
8466;SDS011;4270;48.148;11.648;2023-05-15T12:32:51;6.53;;;5.93;;
8466;SDS011;4270;48.148;11.648;2023-05-15T12:35:17;7.17;;;6.43;;
8466;SDS011;4270;48.148;11.648;2023-05-15T12:37:42;5.93;;;5.10;;
8466;SDS011;4270;48.148;11.648;2023-05-15T12:40:09;7.07;;;5.43;;
8466;SDS011;4270;48.148;11.648;2023-05-15T12:42:42;7.60;;;5.67;;
8466;SDS011;4270;48.148;11.648;2023-05-15T12:45:14;13.23;;;5.80;;
8466;SDS011;4270;48.148;11.648;2023-05-15T12:47:40;10.50;;;5.47;;
8466;SDS011;4270;48.148;11.648;2023-05-15T12:50:24;8.10;;;4.87;;
8466;SDS011;4270;48.148;11.648;2023-05-15T12:52:53;7.43;;;5.10;;
8466;SDS011;4270;48.148;11.648;2023-05-15T12:55:29;5.20;;;4.40;;
8466;SDS011;4270;48.148;11.648;2023-05-15T12:57:59;5.60;;;4.67;;
8466;SDS011;4270;48.148;11.648;2023-05-15T13:00:27;6.50;;;4.20;;
8466;SDS011;4270;48.148;11.648;2023-05-15T13:02:53;5.43;;;4.37;;
8466;SDS011;4270;48.148;11.648;2023-05-15T13:05:19;7.10;;;5.00;;
8466;SDS011;4270;48.148;11.648;2023-05-15T13:07:46;5.70;;;4.57;;
8466;SDS011;4270;48.148;11.648;2023-05-15T13:10:12;5.73;;;4.47;;
8466;SDS011;4270;48.148;11.648;2023-05-15T13:12:46;8.77;;;4.73;;
8466;SDS011;4270;48.148;11.648;2023-05-15T13:17:46;5.90;;;4.03;;
8466;SDS011;4270;48.148;11.648;2023-05-15T13:20:11;4.00;;;3.63;;
8466;SDS011;4270;48.148;11.648;2023-05-15T13:22:37;4.33;;;3.93;;
8466;SDS011;4270;48.148;11.648;2023-05-15T13:25:03;3.87;;;3.57;;
8466;SDS011;4270;48.148;11.648;2023-05-15T13:27:28;4.37;;;3.97;;
8466;SDS011;4270;48.148;11.648;2023-05-15T13:29:53;3.93;;;3.30;;
8466;SDS011;4270;48.148;11.648;2023-05-15T13:32:19;5.50;;;4.10;;
8466;SDS011;4270;48.148;11.648;2023-05-15T13:34:45;4.87;;;4.37;;
8466;SDS011;4270;48.148;11.648;2023-05-15T13:37:10;4.67;;;4.20;;
8466;SDS011;4270;48.148;11.648;2023-05-15T13:39:35;5.33;;;4.00;;
8466;SDS011;4270;48.148;11.648;2023-05-15T13:42:01;4.40;;;3.93;;
8466;SDS011;4270;48.148;11.648;2023-05-15T13:44:26;5.43;;;4.13;;
8466;SDS011;4270;48.148;11.648;2023-05-15T13:46:51;5.00;;;4.07;;
8466;SDS011;4270;48.148;11.648;2023-05-15T13:49:16;4.40;;;4.00;;
8466;SDS011;4270;48.148;11.648;2023-05-15T13:51:41;4.10;;;3.70;;
8466;SDS011;4270;48.148;11.648;2023-05-15T13:54:07;4.47;;;3.60;;
8466;SDS011;4270;48.148;11.648;2023-05-15T13:56:32;5.77;;;4.10;;
8466;SDS011;4270;48.148;11.648;2023-05-15T13:58:57;3.60;;;3.30;;
8466;SDS011;4270;48.148;11.648;2023-05-15T14:01:22;4.20;;;3.40;;
8466;SDS011;4270;48.148;11.648;2023-05-15T14:03:48;3.70;;;3.40;;
8466;SDS011;4270;48.148;11.648;2023-05-15T14:06:13;4.30;;;3.90;;
8466;SDS011;4270;48.148;11.648;2023-05-15T14:08:38;4.03;;;3.67;;
8466;SDS011;4270;48.148;11.648;2023-05-15T14:11:03;4.53;;;3.70;;
8466;SDS011;4270;48.148;11.648;2023-05-15T14:13:29;4.17;;;3.43;;
8466;SDS011;4270;48.148;11.648;2023-05-15T14:15:57;5.70;;;3.60;;
8466;SDS011;4270;48.148;11.648;2023-05-15T14:18:22;4.90;;;3.57;;
8466;SDS011;4270;48.148;11.648;2023-05-15T14:20:47;5.37;;;3.87;;
8466;SDS011;4270;48.148;11.648;2023-05-15T14:23:12;3.47;;;3.17;;
8466;SDS011;4270;48.148;11.648;2023-05-15T14:25:39;4.53;;;3.70;;
8466;SDS011;4270;48.148;11.648;2023-05-15T14:28:04;4.47;;;3.80;;
8466;SDS011;4270;48.148;11.648;2023-05-15T14:30:30;4.37;;;3.37;;
8466;SDS011;4270;48.148;11.648;2023-05-15T14:32:55;3.73;;;3.30;;
8466;SDS011;4270;48.148;11.648;2023-05-15T14:35:20;3.53;;;2.73;;
8466;SDS011;4270;48.148;11.648;2023-05-15T14:37:45;3.40;;;3.10;;
8466;SDS011;4270;48.148;11.648;2023-05-15T14:40:11;2.80;;;2.50;;
8466;SDS011;4270;48.148;11.648;2023-05-15T14:42:36;3.67;;;3.37;;
8466;SDS011;4270;48.148;11.648;2023-05-15T14:45:01;3.50;;;2.87;;
8466;SDS011;4270;48.148;11.648;2023-05-15T14:47:27;3.47;;;2.63;;
8466;SDS011;4270;48.148;11.648;2023-05-15T14:49:53;3.40;;;2.70;;
8466;SDS011;4270;48.148;11.648;2023-05-15T14:52:19;3.33;;;3.03;;
8466;SDS011;4270;48.148;11.648;2023-05-15T14:54:44;3.27;;;2.70;;
8466;SDS011;4270;48.148;11.648;2023-05-15T14:57:09;2.60;;;2.40;;
8466;SDS011;4270;48.148;11.648;2023-05-15T14:59:34;5.80;;;3.30;;
8466;SDS011;4270;48.148;11.648;2023-05-15T15:02:00;3.37;;;3.03;;
8466;SDS011;4270;48.148;11.648;2023-05-15T15:04:25;3.40;;;3.10;;
8466;SDS011;4270;48.148;11.648;2023-05-15T15:06:53;2.80;;;2.60;;